sensor_id;sensor_type;location;lat;lon;timestamp;pressure;altitude;pressure_sealevel;temperature;humidity
49529;BME280;35423;37.320;-121.762;2023-02-15T00:01:49;99822.54;;;26.62;14.17
49529;BME280;35423;37.320;-121.762;2023-02-15T00:04:16;99814.18;;;26.37;14.25
49529;BME280;35423;37.320;-121.762;2023-02-15T00:06:44;99816.17;;;26.26;14.15
49529;BME280;35423;37.320;-121.762;2023-02-15T00:09:10;99809.72;;;26.04;14.15
49529;BME280;35423;37.320;-121.762;2023-02-15T00:11:36;99806.43;;;25.79;14.28
49529;BME280;35423;37.320;-121.762;2023-02-15T00:14:20;99798.73;;;25.69;14.45
49529;BME280;35423;37.320;-121.762;2023-02-15T00:16:47;99796.77;;;25.15;14.46
49529;BME280;35423;37.320;-121.762;2023-02-15T00:19:15;99789.81;;;24.96;14.60
49529;BME280;35423;37.320;-121.762;2023-02-15T00:21:39;99789.10;;;24.91;14.68
49529;BME280;35423;37.320;-121.762;2023-02-15T00:24:08;99788.54;;;24.77;14.88
49529;BME280;35423;37.320;-121.762;2023-02-15T00:26:40;99786.66;;;25.16;14.74
49529;BME280;35423;37.320;-121.762;2023-02-15T00:29:03;99785.33;;;25.57;14.60
49529;BME280;35423;37.320;-121.762;2023-02-15T00:31:29;99779.02;;;25.60;14.55
49529;BME280;35423;37.320;-121.762;2023-02-15T00:33:54;99783.92;;;25.27;14.49
49529;BME280;35423;37.320;-121.762;2023-02-15T00:36:22;99780.57;;;25.35;14.59
49529;BME280;35423;37.320;-121.762;2023-02-15T00:38:55;99778.04;;;24.91;14.84
49529;BME280;35423;37.320;-121.762;2023-02-15T00:41:17;99778.30;;;24.77;15.12
49529;BME280;35423;37.320;-121.762;2023-02-15T00:43:45;99783.64;;;24.82;15.21
49529;BME280;35423;37.320;-121.762;2023-02-15T00:46:13;99782.53;;;24.64;15.36
49529;BME280;35423;37.320;-121.762;2023-02-15T00:48:38;99776.85;;;24.38;15.36
49529;BME280;35423;37.320;-121.762;2023-02-15T00:51:10;99787.24;;;24.10;15.42
49529;BME280;35423;37.320;-121.762;2023-02-15T00:53:40;99795.07;;;24.33;15.74
49529;BME280;35423;37.320;-121.762;2023-02-15T00:56:06;99794.59;;;23.97;16.12
49529;BME280;35423;37.320;-121.762;2023-02-15T00:58:31;99796.17;;;23.81;15.88
49529;BME280;35423;37.320;-121.762;2023-02-15T01:01:04;99801.91;;;23.55;15.89
49529;BME280;35423;37.320;-121.762;2023-02-15T01:03:24;99802.89;;;23.52;15.89
49529;BME280;35423;37.320;-121.762;2023-02-15T01:05:51;99803.00;;;23.17;15.98
49529;BME280;35423;37.320;-121.762;2023-02-15T01:08:19;99796.48;;;23.00;16.11
49529;BME280;35423;37.320;-121.762;2023-02-15T01:10:55;99806.51;;;22.90;16.33
49529;BME280;35423;37.320;-121.762;2023-02-15T01:13:23;99804.38;;;22.16;16.54
49529;BME280;35423;37.320;-121.762;2023-02-15T01:15:53;99806.26;;;22.04;16.82
49529;BME280;35423;37.320;-121.762;2023-02-15T01:18:15;99809.15;;;21.50;17.20
49529;BME280;35423;37.320;-121.762;2023-02-15T01:20:46;99814.92;;;21.59;17.44
49529;BME280;35423;37.320;-121.762;2023-02-15T01:23:15;99819.89;;;21.10;17.74
49529;BME280;35423;37.320;-121.762;2023-02-15T01:25:45;99825.12;;;20.96;17.91
49529;BME280;35423;37.320;-121.762;2023-02-15T01:28:19;99828.11;;;20.70;18.13
49529;BME280;35423;37.320;-121.762;2023-02-15T01:30:46;99827.99;;;20.70;18.41
49529;BME280;35423;37.320;-121.762;2023-02-15T01:33:16;99834.63;;;20.61;18.60
49529;BME280;35423;37.320;-121.762;2023-02-15T01:35:49;99831.10;;;20.66;18.83
49529;BME280;35423;37.320;-121.762;2023-02-15T01:38:16;99836.94;;;20.30;19.22
49529;BME280;35423;37.320;-121.762;2023-02-15T01:40:45;99853.19;;;20.12;19.74
49529;BME280;35423;37.320;-121.762;2023-02-15T01:45:36;99859.43;;;20.03;21.25
49529;BME280;35423;37.320;-121.762;2023-02-15T01:48:05;99854.04;;;19.80;21.90
49529;BME280;35423;37.320;-121.762;2023-02-15T01:50:30;99859.10;;;19.55;22.16
49529;BME280;35423;37.320;-121.762;2023-02-15T01:52:57;99858.93;;;19.30;22.27
49529;BME280;35423;37.320;-121.762;2023-02-15T01:55:31;99858.41;;;19.06;22.54
49529;BME280;35423;37.320;-121.762;2023-02-15T01:57:52;99852.20;;;19.21;22.30
49529;BME280;35423;37.320;-121.762;2023-02-15T02:00:25;99861.92;;;19.14;22.23
49529;BME280;35423;37.320;-121.762;2023-02-15T02:02:53;99867.02;;;19.03;22.15
49529;BME280;35423;37.320;-121.762;2023-02-15T02:05:16;99864.72;;;18.93;22.19
49529;BME280;35423;37.320;-121.762;2023-02-15T02:07:44;99867.29;;;18.64;22.19
49529;BME280;35423;37.320;-121.762;2023-02-15T02:10:12;99874.35;;;18.79;22.10
49529;BME280;35423;37.320;-121.762;2023-02-15T02:12:34;99877.89;;;18.72;22.16
49529;BME280;35423;37.320;-121.762;2023-02-15T02:15:02;99886.93;;;18.58;22.36
49529;BME280;35423;37.320;-121.762;2023-02-15T02:17:37;99890.72;;;18.42;22.59
49529;BME280;35423;37.320;-121.762;2023-02-15T02:20:05;99896.00;;;18.05;22.68
49529;BME280;35423;37.320;-121.762;2023-02-15T02:27:27;99906.56;;;17.87;22.69
49529;BME280;35423;37.320;-121.762;2023-02-15T02:34:40;99910.40;;;17.81;22.84
49529;BME280;35423;37.320;-121.762;2023-02-15T02:37:07;99908.89;;;17.62;23.29
49529;BME280;35423;37.320;-121.762;2023-02-15T02:39:33;99919.65;;;17.49;23.45
49529;BME280;35423;37.320;-121.762;2023-02-15T02:41:58;99916.95;;;17.44;23.54
49529;BME280;35423;37.320;-121.762;2023-02-15T02:44:22;99919.43;;;17.12;23.64
49529;BME280;35423;37.320;-121.762;2023-02-15T02:46:51;99926.64;;;17.48;23.86
49529;BME280;35423;37.320;-121.762;2023-02-15T02:49:09;99933.18;;;17.41;23.99
49529;BME280;35423;37.320;-121.762;2023-02-15T02:51:37;99931.45;;;17.12;24.00
49529;BME280;35423;37.320;-121.762;2023-02-15T02:54:06;99939.31;;;17.03;24.03
49529;BME280;35423;37.320;-121.762;2023-02-15T02:56:36;99944.70;;;17.26;23.84
49529;BME280;35423;37.320;-121.762;2023-02-15T02:58:59;99948.64;;;17.18;23.94
49529;BME280;35423;37.320;-121.762;2023-02-15T03:01:24;99950.65;;;16.86;23.91
49529;BME280;35423;37.320;-121.762;2023-02-15T03:03:49;99952.41;;;16.74;23.88
49529;BME280;35423;37.320;-121.762;2023-02-15T03:06:15;99957.97;;;16.88;23.84
49529;BME280;35423;37.320;-121.762;2023-02-15T03:08:40;99959.65;;;16.79;23.71
49529;BME280;35423;37.320;-121.762;2023-02-15T03:11:08;99958.24;;;16.73;23.51
49529;BME280;35423;37.320;-121.762;2023-02-15T03:13:37;99962.55;;;16.61;23.37
49529;BME280;35423;37.320;-121.762;2023-02-15T03:16:04;99974.32;;;16.76;23.28
49529;BME280;35423;37.320;-121.762;2023-02-15T03:18:31;99980.12;;;16.39;23.57
49529;BME280;35423;37.320;-121.762;2023-02-15T03:20:56;99982.62;;;16.02;23.80
49529;BME280;35423;37.320;-121.762;2023-02-15T03:23:24;99981.93;;;16.36;24.07
49529;BME280;35423;37.320;-121.762;2023-02-15T03:25:52;99983.39;;;16.08;24.13
49529;BME280;35423;37.320;-121.762;2023-02-15T03:28:20;99990.24;;;16.25;24.03
49529;BME280;35423;37.320;-121.762;2023-02-15T03:30:46;99995.85;;;16.09;23.99
49529;BME280;35423;37.320;-121.762;2023-02-15T03:33:15;99998.13;;;16.00;24.09
49529;BME280;35423;37.320;-121.762;2023-02-15T03:35:47;99999.02;;;16.24;24.01
49529;BME280;35423;37.320;-121.762;2023-02-15T03:38:09;100003.52;;;16.15;23.94
49529;BME280;35423;37.320;-121.762;2023-02-15T03:40:37;100006.43;;;16.07;23.53
49529;BME280;35423;37.320;-121.762;2023-02-15T03:43:04;100008.92;;;16.28;23.34
49529;BME280;35423;37.320;-121.762;2023-02-15T03:45:29;100012.68;;;15.91;22.92
49529;BME280;35423;37.320;-121.762;2023-02-15T03:47:54;100013.58;;;15.86;22.69
49529;BME280;35423;37.320;-121.762;2023-02-15T03:50:24;100017.23;;;15.83;22.63
49529;BME280;35423;37.320;-121.762;2023-02-15T03:52:46;100021.78;;;15.78;22.58
49529;BME280;35423;37.320;-121.762;2023-02-15T03:55:20;100023.41;;;15.73;22.63
49529;BME280;35423;37.320;-121.762;2023-02-15T03:57:47;100027.16;;;15.70;22.66
49529;BME280;35423;37.320;-121.762;2023-02-15T04:00:18;100027.98;;;15.62;22.72
49529;BME280;35423;37.320;-121.762;2023-02-15T04:02:51;100029.09;;;15.59;22.72
49529;BME280;35423;37.320;-121.762;2023-02-15T04:05:07;100031.26;;;16.00;22.75
49529;BME280;35423;37.320;-121.762;2023-02-15T04:07:36;100033.91;;;15.73;22.75
49529;BME280;35423;37.320;-121.762;2023-02-15T04:10:05;100043.94;;;15.64;22.84
49529;BME280;35423;37.320;-121.762;2023-02-15T04:12:31;100044.53;;;15.30;22.94
49529;BME280;35423;37.320;-121.762;2023-02-15T04:14:57;100048.73;;;15.70;23.10
49529;BME280;35423;37.320;-121.762;2023-02-15T04:17:23;100045.52;;;15.07;23.30
49529;BME280;35423;37.320;-121.762;2023-02-15T04:19:48;100047.98;;;15.27;23.52
49529;BME280;35423;37.320;-121.762;2023-02-15T04:22:17;100055.62;;;15.15;23.83
49529;BME280;35423;37.320;-121.762;2023-02-15T04:24:52;100058.96;;;15.30;24.01
49529;BME280;35423;37.320;-121.762;2023-02-15T04:27:20;100059.99;;;15.00;24.14
49529;BME280;35423;37.320;-121.762;2023-02-15T04:29:45;100060.71;;;15.04;24.37
49529;BME280;35423;37.320;-121.762;2023-02-15T04:32:11;100059.32;;;14.73;24.35
49529;BME280;35423;37.320;-121.762;2023-02-15T04:34:38;100060.32;;;14.64;24.26
49529;BME280;35423;37.320;-121.762;2023-02-15T04:37:05;100064.29;;;14.76;24.08
49529;BME280;35423;37.320;-121.762;2023-02-15T04:39:35;100069.55;;;14.69;23.42
49529;BME280;35423;37.320;-121.762;2023-02-15T04:42:06;100074.13;;;14.65;22.97
49529;BME280;35423;37.320;-121.762;2023-02-15T04:44:33;100080.60;;;14.76;22.11
49529;BME280;35423;37.320;-121.762;2023-02-15T04:47:00;100080.72;;;14.46;21.98
49529;BME280;35423;37.320;-121.762;2023-02-15T04:49:27;100080.94;;;14.46;22.09
49529;BME280;35423;37.320;-121.762;2023-02-15T04:51:52;100081.18;;;14.45;22.15
49529;BME280;35423;37.320;-121.762;2023-02-15T04:54:20;100092.42;;;14.18;21.27
49529;BME280;35423;37.320;-121.762;2023-02-15T04:56:47;100094.72;;;14.37;20.53
49529;BME280;35423;37.320;-121.762;2023-02-15T04:59:17;100099.34;;;14.33;20.24
49529;BME280;35423;37.320;-121.762;2023-02-15T05:01:43;100106.34;;;14.28;20.17
49529;BME280;35423;37.320;-121.762;2023-02-15T05:04:08;100112.49;;;14.20;20.05
49529;BME280;35423;37.320;-121.762;2023-02-15T05:06:33;100113.83;;;14.19;19.95
49529;BME280;35423;37.320;-121.762;2023-02-15T05:09:03;100112.40;;;14.22;19.71
49529;BME280;35423;37.320;-121.762;2023-02-15T05:11:31;100116.76;;;14.17;19.60
49529;BME280;35423;37.320;-121.762;2023-02-15T05:14:00;100120.44;;;14.15;19.56
49529;BME280;35423;37.320;-121.762;2023-02-15T05:16:25;100122.84;;;14.12;19.36
49529;BME280;35423;37.320;-121.762;2023-02-15T05:18:53;100125.44;;;14.08;19.35
49529;BME280;35423;37.320;-121.762;2023-02-15T05:21:21;100131.70;;;14.27;19.27
49529;BME280;35423;37.320;-121.762;2023-02-15T05:23:47;100134.29;;;13.98;19.35
49529;BME280;35423;37.320;-121.762;2023-02-15T05:26:21;100138.10;;;14.21;19.41
49529;BME280;35423;37.320;-121.762;2023-02-15T05:28:42;100143.58;;;13.93;19.35
49529;BME280;35423;37.320;-121.762;2023-02-15T05:31:12;100145.92;;;13.89;19.26
49529;BME280;35423;37.320;-121.762;2023-02-15T05:33:36;100149.81;;;14.12;19.03
49529;BME280;35423;37.320;-121.762;2023-02-15T05:36:10;100149.79;;;14.11;18.95
49529;BME280;35423;37.320;-121.762;2023-02-15T05:38:36;100151.67;;;14.01;18.87
49529;BME280;35423;37.320;-121.762;2023-02-15T05:41:04;100158.96;;;13.97;18.87
49529;BME280;35423;37.320;-121.762;2023-02-15T05:43:29;100163.02;;;14.15;19.01
49529;BME280;35423;37.320;-121.762;2023-02-15T05:45:55;100164.05;;;14.10;18.97
49529;BME280;35423;37.320;-121.762;2023-02-15T05:48:24;100161.97;;;13.81;18.86
49529;BME280;35423;37.320;-121.762;2023-02-15T05:53:16;100166.23;;;13.97;18.68
49529;BME280;35423;37.320;-121.762;2023-02-15T05:55:41;100168.68;;;13.89;18.64
49529;BME280;35423;37.320;-121.762;2023-02-15T05:58:10;100164.88;;;13.68;18.64
49529;BME280;35423;37.320;-121.762;2023-02-15T06:00:44;100173.91;;;13.82;18.57
49529;BME280;35423;37.320;-121.762;2023-02-15T06:03:10;100181.05;;;13.78;18.45
49529;BME280;35423;37.320;-121.762;2023-02-15T06:05:35;100186.67;;;13.73;18.49
49529;BME280;35423;37.320;-121.762;2023-02-15T06:08:03;100198.01;;;13.69;18.56
49529;BME280;35423;37.320;-121.762;2023-02-15T06:10:28;100195.04;;;13.66;18.62
49529;BME280;35423;37.320;-121.762;2023-02-15T06:12:55;100198.34;;;13.62;18.54
49529;BME280;35423;37.320;-121.762;2023-02-15T06:15:23;100200.84;;;13.76;18.55
49529;BME280;35423;37.320;-121.762;2023-02-15T06:17:49;100199.10;;;13.26;18.68
49529;BME280;35423;37.320;-121.762;2023-02-15T06:20:15;100202.71;;;13.48;18.72
49529;BME280;35423;37.320;-121.762;2023-02-15T06:22:41;100202.64;;;13.49;18.61
49529;BME280;35423;37.320;-121.762;2023-02-15T06:25:09;100198.05;;;13.49;18.52
49529;BME280;35423;37.320;-121.762;2023-02-15T06:27:34;100202.60;;;13.43;18.49
49529;BME280;35423;37.320;-121.762;2023-02-15T06:30:07;100208.87;;;13.38;18.54
49529;BME280;35423;37.320;-121.762;2023-02-15T06:32:32;100215.06;;;13.56;18.63
49529;BME280;35423;37.320;-121.762;2023-02-15T06:35:01;100218.35;;;13.28;18.73
49529;BME280;35423;37.320;-121.762;2023-02-15T06:37:38;100223.54;;;13.22;18.78
49529;BME280;35423;37.320;-121.762;2023-02-15T06:39:58;100224.53;;;13.15;18.93
49529;BME280;35423;37.320;-121.762;2023-02-15T06:42:24;100225.38;;;13.31;19.04
49529;BME280;35423;37.320;-121.762;2023-02-15T06:44:49;100227.53;;;13.25;19.17
49529;BME280;35423;37.320;-121.762;2023-02-15T06:47:16;100233.60;;;12.90;19.23
49529;BME280;35423;37.320;-121.762;2023-02-15T06:49:41;100233.25;;;13.31;19.22
49529;BME280;35423;37.320;-121.762;2023-02-15T06:52:09;100236.23;;;12.93;19.27
49529;BME280;35423;37.320;-121.762;2023-02-15T06:54:35;100232.75;;;12.86;19.31
49529;BME280;35423;37.320;-121.762;2023-02-15T06:57:02;100237.79;;;12.55;19.33
49529;BME280;35423;37.320;-121.762;2023-02-15T06:59:35;100237.70;;;12.73;19.26
49529;BME280;35423;37.320;-121.762;2023-02-15T07:02:00;100238.83;;;12.43;19.56
49529;BME280;35423;37.320;-121.762;2023-02-15T07:04:27;100245.31;;;12.58;19.48
49529;BME280;35423;37.320;-121.762;2023-02-15T07:06:55;100244.76;;;12.77;19.44
49529;BME280;35423;37.320;-121.762;2023-02-15T07:09:25;100246.16;;;12.67;19.61
49529;BME280;35423;37.320;-121.762;2023-02-15T07:11:52;100252.66;;;12.61;19.61
49529;BME280;35423;37.320;-121.762;2023-02-15T07:14:18;100253.87;;;12.54;19.68
49529;BME280;35423;37.320;-121.762;2023-02-15T07:16:47;100258.91;;;12.44;19.65
49529;BME280;35423;37.320;-121.762;2023-02-15T07:19:12;100256.68;;;12.39;19.59
49529;BME280;35423;37.320;-121.762;2023-02-15T07:21:37;100257.66;;;12.39;19.60
49529;BME280;35423;37.320;-121.762;2023-02-15T07:24:07;100266.25;;;12.33;19.49
49529;BME280;35423;37.320;-121.762;2023-02-15T07:26:32;100266.46;;;12.28;19.45
49529;BME280;35423;37.320;-121.762;2023-02-15T07:28:58;100270.22;;;12.23;19.20
49529;BME280;35423;37.320;-121.762;2023-02-15T07:31:25;100269.54;;;12.20;18.48
49529;BME280;35423;37.320;-121.762;2023-02-15T07:33:53;100279.26;;;12.28;17.80
49529;BME280;35423;37.320;-121.762;2023-02-15T07:36:19;100277.63;;;12.36;17.92
49529;BME280;35423;37.320;-121.762;2023-02-15T07:38:46;100279.75;;;12.57;18.07
49529;BME280;35423;37.320;-121.762;2023-02-15T07:41:15;100282.79;;;12.30;17.76
49529;BME280;35423;37.320;-121.762;2023-02-15T07:43:43;100282.58;;;12.29;17.43
49529;BME280;35423;37.320;-121.762;2023-02-15T07:46:08;100281.81;;;12.35;17.25
49529;BME280;35423;37.320;-121.762;2023-02-15T07:48:38;100287.78;;;12.32;17.27
49529;BME280;35423;37.320;-121.762;2023-02-15T07:51:12;100288.39;;;12.36;16.98
49529;BME280;35423;37.320;-121.762;2023-02-15T07:53:36;100291.38;;;12.35;16.63
49529;BME280;35423;37.320;-121.762;2023-02-15T07:56:02;100291.89;;;12.38;16.47
49529;BME280;35423;37.320;-121.762;2023-02-15T07:58:28;100295.24;;;12.43;16.56
49529;BME280;35423;37.320;-121.762;2023-02-15T08:01:01;100304.12;;;12.20;16.63
49529;BME280;35423;37.320;-121.762;2023-02-15T08:03:28;100304.66;;;12.54;16.55
49529;BME280;35423;37.320;-121.762;2023-02-15T08:06:00;100304.21;;;12.49;16.60
49529;BME280;35423;37.320;-121.762;2023-02-15T08:08:25;100303.03;;;12.47;16.55
49529;BME280;35423;37.320;-121.762;2023-02-15T08:10:53;100310.02;;;12.20;16.36
49529;BME280;35423;37.320;-121.762;2023-02-15T08:13:20;100311.70;;;12.42;17.07
49529;BME280;35423;37.320;-121.762;2023-02-15T08:15:49;100318.11;;;12.32;18.77
49529;BME280;35423;37.320;-121.762;2023-02-15T08:18:11;100321.87;;;12.21;18.94
49529;BME280;35423;37.320;-121.762;2023-02-15T08:20:38;100323.61;;;12.35;19.61
49529;BME280;35423;37.320;-121.762;2023-02-15T08:23:03;100329.16;;;12.22;20.63
49529;BME280;35423;37.320;-121.762;2023-02-15T08:25:33;100332.89;;;11.99;21.63
49529;BME280;35423;37.320;-121.762;2023-02-15T08:28:01;100337.33;;;12.06;22.02
49529;BME280;35423;37.320;-121.762;2023-02-15T08:30:28;100333.00;;;11.95;22.08
49529;BME280;35423;37.320;-121.762;2023-02-15T08:32:56;100336.42;;;11.59;22.27
49529;BME280;35423;37.320;-121.762;2023-02-15T08:35:25;100333.91;;;11.52;22.63
49529;BME280;35423;37.320;-121.762;2023-02-15T08:37:57;100340.29;;;11.72;22.39
49529;BME280;35423;37.320;-121.762;2023-02-15T08:40:18;100348.62;;;11.61;22.62
49529;BME280;35423;37.320;-121.762;2023-02-15T08:42:43;100348.51;;;11.48;22.96
49529;BME280;35423;37.320;-121.762;2023-02-15T08:45:10;100350.52;;;11.19;22.94
49529;BME280;35423;37.320;-121.762;2023-02-15T08:47:36;100352.57;;;11.38;23.15
49529;BME280;35423;37.320;-121.762;2023-02-15T08:50:03;100353.62;;;11.26;23.44
49529;BME280;35423;37.320;-121.762;2023-02-15T08:52:30;100350.79;;;11.24;23.34
49529;BME280;35423;37.320;-121.762;2023-02-15T08:54:57;100358.81;;;10.91;23.40
49529;BME280;35423;37.320;-121.762;2023-02-15T08:57:23;100360.20;;;11.13;23.40
49529;BME280;35423;37.320;-121.762;2023-02-15T08:59:50;100366.64;;;11.26;23.61
49529;BME280;35423;37.320;-121.762;2023-02-15T09:02:17;100369.51;;;10.92;23.80
49529;BME280;35423;37.320;-121.762;2023-02-15T09:04:45;100371.90;;;10.80;23.90
49529;BME280;35423;37.320;-121.762;2023-02-15T09:07:15;100372.92;;;10.76;23.66
49529;BME280;35423;37.320;-121.762;2023-02-15T09:09:43;100378.34;;;10.96;23.55
49529;BME280;35423;37.320;-121.762;2023-02-15T09:12:10;100384.67;;;10.60;23.78
49529;BME280;35423;37.320;-121.762;2023-02-15T09:14:37;100389.56;;;10.84;23.60
49529;BME280;35423;37.320;-121.762;2023-02-15T09:17:09;100389.36;;;10.57;23.48
49529;BME280;35423;37.320;-121.762;2023-02-15T09:19:29;100401.65;;;10.50;23.52
49529;BME280;35423;37.320;-121.762;2023-02-15T09:21:55;100400.50;;;10.74;23.27
49529;BME280;35423;37.320;-121.762;2023-02-15T09:24:22;100413.08;;;10.85;23.23
49529;BME280;35423;37.320;-121.762;2023-02-15T09:26:49;100411.41;;;10.60;22.97
49529;BME280;35423;37.320;-121.762;2023-02-15T09:29:19;100419.30;;;10.64;22.69
49529;BME280;35423;37.320;-121.762;2023-02-15T09:31:52;100416.43;;;10.94;22.51
49529;BME280;35423;37.320;-121.762;2023-02-15T09:34:30;100424.57;;;11.00;22.13
49529;BME280;35423;37.320;-121.762;2023-02-15T09:37:13;100424.39;;;10.73;22.06
49529;BME280;35423;37.320;-121.762;2023-02-15T09:39:39;100428.47;;;10.69;22.15
49529;BME280;35423;37.320;-121.762;2023-02-15T09:44:33;100432.72;;;10.61;22.23
49529;BME280;35423;37.320;-121.762;2023-02-15T09:47:06;100437.13;;;10.80;22.17
49529;BME280;35423;37.320;-121.762;2023-02-15T09:49:25;100438.44;;;10.78;22.01
49529;BME280;35423;37.320;-121.762;2023-02-15T09:51:54;100436.05;;;10.52;21.92
49529;BME280;35423;37.320;-121.762;2023-02-15T09:54:24;100434.66;;;10.67;21.85
49529;BME280;35423;37.320;-121.762;2023-02-15T09:56:44;100429.54;;;10.69;21.77
49529;BME280;35423;37.320;-121.762;2023-02-15T09:59:19;100436.78;;;10.64;21.54
49529;BME280;35423;37.320;-121.762;2023-02-15T10:01:44;100430.31;;;10.64;21.42
49529;BME280;35423;37.320;-121.762;2023-02-15T10:04:17;100437.36;;;10.40;21.17
49529;BME280;35423;37.320;-121.762;2023-02-15T10:06:36;100434.05;;;10.64;21.19
49529;BME280;35423;37.320;-121.762;2023-02-15T10:09:07;100432.06;;;10.43;21.14
49529;BME280;35423;37.320;-121.762;2023-02-15T10:11:27;100438.28;;;10.40;21.10
49529;BME280;35423;37.320;-121.762;2023-02-15T10:13:56;100440.32;;;10.65;21.13
49529;BME280;35423;37.320;-121.762;2023-02-15T10:16:22;100438.96;;;10.62;21.01
49529;BME280;35423;37.320;-121.762;2023-02-15T10:18:56;100434.55;;;10.61;20.95
49529;BME280;35423;37.320;-121.762;2023-02-15T10:21:22;100439.91;;;10.58;20.88
49529;BME280;35423;37.320;-121.762;2023-02-15T10:23:50;100440.97;;;10.39;20.96
49529;BME280;35423;37.320;-121.762;2023-02-15T10:26:12;100441.10;;;10.58;20.99
49529;BME280;35423;37.320;-121.762;2023-02-15T10:28:38;100439.36;;;10.56;20.94
49529;BME280;35423;37.320;-121.762;2023-02-15T10:31:02;100440.84;;;10.50;20.94
49529;BME280;35423;37.320;-121.762;2023-02-15T10:33:36;100440.23;;;10.48;20.89
49529;BME280;35423;37.320;-121.762;2023-02-15T10:36:00;100437.37;;;10.44;20.79
49529;BME280;35423;37.320;-121.762;2023-02-15T10:38:24;100438.79;;;10.43;20.76
49529;BME280;35423;37.320;-121.762;2023-02-15T10:40:53;100434.15;;;10.44;20.54
49529;BME280;35423;37.320;-121.762;2023-02-15T10:43:23;100436.76;;;10.42;20.46
49529;BME280;35423;37.320;-121.762;2023-02-15T10:45:43;100432.51;;;10.25;20.54
49529;BME280;35423;37.320;-121.762;2023-02-15T10:48:15;100432.96;;;10.45;20.47
49529;BME280;35423;37.320;-121.762;2023-02-15T10:50:40;100435.41;;;10.20;20.39
49529;BME280;35423;37.320;-121.762;2023-02-15T10:53:09;100429.47;;;10.20;20.41
49529;BME280;35423;37.320;-121.762;2023-02-15T10:55:35;100430.91;;;10.38;20.37
49529;BME280;35423;37.320;-121.762;2023-02-15T10:57:58;100425.86;;;10.17;20.33
49529;BME280;35423;37.320;-121.762;2023-02-15T11:00:27;100430.07;;;10.38;20.31
49529;BME280;35423;37.320;-121.762;2023-02-15T11:02:56;100420.85;;;10.35;20.18
49529;BME280;35423;37.320;-121.762;2023-02-15T11:07:43;100411.48;;;10.27;20.08
49529;BME280;35423;37.320;-121.762;2023-02-15T11:10:18;100407.29;;;10.29;19.97
49529;BME280;35423;37.320;-121.762;2023-02-15T11:12:35;100399.53;;;10.31;20.11
49529;BME280;35423;37.320;-121.762;2023-02-15T11:15:10;100399.39;;;10.32;19.91
49529;BME280;35423;37.320;-121.762;2023-02-15T11:17:30;100401.07;;;10.30;19.88
49529;BME280;35423;37.320;-121.762;2023-02-15T11:19:58;100400.02;;;10.28;19.82
49529;BME280;35423;37.320;-121.762;2023-02-15T11:22:22;100401.17;;;10.04;19.85
49529;BME280;35423;37.320;-121.762;2023-02-15T11:24:47;100406.98;;;10.20;19.87
49529;BME280;35423;37.320;-121.762;2023-02-15T11:27:19;100410.43;;;10.20;19.93
49529;BME280;35423;37.320;-121.762;2023-02-15T11:29:40;100409.55;;;10.21;19.85
49529;BME280;35423;37.320;-121.762;2023-02-15T11:32:12;100412.75;;;10.17;19.90
49529;BME280;35423;37.320;-121.762;2023-02-15T11:34:34;100423.73;;;10.29;19.97
49529;BME280;35423;37.320;-121.762;2023-02-15T11:37:10;100423.71;;;10.21;20.11
49529;BME280;35423;37.320;-121.762;2023-02-15T11:39:37;100426.86;;;10.38;20.34
49529;BME280;35423;37.320;-121.762;2023-02-15T11:42:13;100427.82;;;9.98;20.54
49529;BME280;35423;37.320;-121.762;2023-02-15T11:44:34;100436.20;;;10.15;20.71
49529;BME280;35423;37.320;-121.762;2023-02-15T11:46:57;100433.19;;;9.81;20.77
49529;BME280;35423;37.320;-121.762;2023-02-15T11:49:26;100436.43;;;9.65;20.96
49529;BME280;35423;37.320;-121.762;2023-02-15T11:51:48;100435.98;;;9.86;21.02
49529;BME280;35423;37.320;-121.762;2023-02-15T11:54:15;100444.45;;;9.49;21.25
49529;BME280;35423;37.320;-121.762;2023-02-15T11:56:40;100446.69;;;9.92;21.33
49529;BME280;35423;37.320;-121.762;2023-02-15T11:59:12;100445.79;;;9.35;21.37
49529;BME280;35423;37.320;-121.762;2023-02-15T12:01:36;100443.74;;;9.52;21.43
49529;BME280;35423;37.320;-121.762;2023-02-15T12:04:04;100448.40;;;8.96;21.55
49529;BME280;35423;37.320;-121.762;2023-02-15T12:06:35;100450.68;;;9.61;21.45
49529;BME280;35423;37.320;-121.762;2023-02-15T12:09:05;100453.57;;;9.34;21.43
49529;BME280;35423;37.320;-121.762;2023-02-15T12:11:31;100458.71;;;9.51;21.37
49529;BME280;35423;37.320;-121.762;2023-02-15T12:13:56;100456.36;;;9.49;21.29
49529;BME280;35423;37.320;-121.762;2023-02-15T12:16:23;100464.13;;;9.46;21.11
49529;BME280;35423;37.320;-121.762;2023-02-15T12:18:48;100467.47;;;9.28;20.96
49529;BME280;35423;37.320;-121.762;2023-02-15T12:21:14;100470.93;;;9.53;20.89
49529;BME280;35423;37.320;-121.762;2023-02-15T12:23:46;100476.05;;;9.53;20.87
49529;BME280;35423;37.320;-121.762;2023-02-15T12:26:07;100479.40;;;9.29;20.85
49529;BME280;35423;37.320;-121.762;2023-02-15T12:28:41;100483.66;;;9.57;20.80
49529;BME280;35423;37.320;-121.762;2023-02-15T12:31:24;100487.93;;;9.58;20.92
49529;BME280;35423;37.320;-121.762;2023-02-15T12:33:54;100495.51;;;9.74;21.14
49529;BME280;35423;37.320;-121.762;2023-02-15T12:36:22;100493.14;;;9.44;21.22
49529;BME280;35423;37.320;-121.762;2023-02-15T12:41:22;100499.05;;;9.24;21.75
49529;BME280;35423;37.320;-121.762;2023-02-15T12:43:41;100502.04;;;9.15;21.90
49529;BME280;35423;37.320;-121.762;2023-02-15T12:46:14;100510.95;;;9.10;21.59